createdAt,value
2022-08-22T00:00:13.783Z,23.89
2022-08-22T00:03:12.286Z,25.16
2022-08-22T00:03:15.539Z,24.34
2022-08-22T00:03:26.979Z,24.37
2022-08-22T00:06:16.048Z,24.76
2022-08-22T00:08:58.790Z,24.73
2022-08-22T00:11:43.014Z,25.01
2022-08-22T00:14:21.404Z,24.37
2022-08-22T00:17:01.269Z,24.52
2022-08-22T00:19:42.376Z,24.33
2022-08-22T00:22:20.396Z,24.13
2022-08-22T00:24:58.236Z,24.15
2022-08-22T00:27:33.967Z,24.01
2022-08-22T00:30:09.315Z,24.56
2022-08-22T00:32:44.946Z,24.58
2022-08-22T00:35:22.733Z,24.59
2022-08-22T00:38:03.755Z,24.38
2022-08-22T00:40:53.403Z,24.43
2022-08-22T00:44:04.815Z,25.01
2022-08-22T00:46:57.637Z,24.56
2022-08-22T00:49:49.744Z,25.03
2022-08-22T00:52:37.680Z,25.24
2022-08-22T00:55:23.972Z,24.76
2022-08-22T00:58:34.041Z,24.57
2022-08-22T01:01:08.125Z,24.87
2022-08-22T01:04:09.606Z,25.15
2022-08-22T01:06:50.633Z,24.78
2022-08-22T01:09:32.574Z,24.44
2022-08-22T01:12:26.255Z,24.46
2022-08-22T01:15:00.785Z,23.87
2022-08-22T01:17:56.469Z,24.12
2022-08-22T01:21:13.231Z,24.05
2022-08-22T01:24:38.533Z,23.67
2022-08-22T01:27:57.727Z,23.61
2022-08-22T01:30:49.451Z,23.61
2022-08-22T01:33:56.698Z,23.31
2022-08-22T01:36:47.021Z,23.39
2022-08-22T01:39:47.449Z,23.21
2022-08-22T01:42:40.760Z,23.66
2022-08-22T01:45:40.073Z,23.65
2022-08-22T01:48:13.827Z,23.82
2022-08-22T01:50:48.285Z,23.71
2022-08-22T01:53:24.817Z,23.68
2022-08-22T01:56:02.119Z,23.86
2022-08-22T01:58:34.620Z,23.86
2022-08-22T02:01:18.103Z,23.70
2022-08-22T02:04:00.510Z,23.75
2022-08-22T02:06:41.992Z,23.70
2022-08-22T02:09:24.360Z,23.71
2022-08-22T02:11:57.100Z,23.77
2022-08-22T02:14:41.563Z,23.79
2022-08-22T02:17:21.325Z,23.91
2022-08-22T02:19:59.523Z,23.95
2022-08-22T02:22:36.187Z,23.86
2022-08-22T02:25:20.400Z,23.64
2022-08-22T02:27:58.003Z,23.96
2022-08-22T02:30:43.322Z,23.75
2022-08-22T02:33:22.436Z,23.90
2022-08-22T02:35:59.850Z,24.27
2022-08-22T02:38:35.707Z,23.43
2022-08-22T02:41:13.783Z,23.92
2022-08-22T02:43:50.661Z,23.68
2022-08-22T02:46:29.364Z,24.03
2022-08-22T02:49:07.350Z,23.54
2022-08-22T02:51:47.752Z,23.60
2022-08-22T02:54:25.804Z,23.69
2022-08-22T02:57:03.410Z,23.29
2022-08-22T02:59:37.225Z,23.42
2022-08-22T03:02:33.313Z,23.62
2022-08-22T03:05:03.923Z,24.16
2022-08-22T03:07:42.093Z,24.36
2022-08-22T03:10:20.070Z,24.76
2022-08-22T03:13:00.338Z,24.77
2022-08-22T03:15:35.542Z,24.06
2022-08-22T03:18:16.338Z,24.36
2022-08-22T03:20:52.528Z,24.28
2022-08-22T03:23:29.281Z,24.26
2022-08-22T03:26:07.652Z,24.30
2022-08-22T03:28:58.903Z,24.15
2022-08-22T03:31:31.642Z,23.93
2022-08-22T03:34:22.301Z,23.67
2022-08-22T03:37:03.950Z,23.24
2022-08-22T03:39:56.184Z,23.61
2022-08-22T03:43:04.270Z,23.28
2022-08-22T03:46:10.156Z,23.22
2022-08-22T03:49:21.444Z,23.22
2022-08-22T03:52:15.069Z,23.25
2022-08-22T03:55:17.988Z,23.18
2022-08-22T03:58:12.010Z,23.29
2022-08-22T04:01:29.681Z,23.02
2022-08-22T04:04:26.251Z,22.74
2022-08-22T04:07:35.288Z,22.36
2022-08-22T04:10:26.508Z,22.81
2022-08-22T04:13:12.727Z,22.82
2022-08-22T04:16:10.117Z,23.08
2022-08-22T04:18:54.446Z,22.73
2022-08-22T04:21:43.651Z,22.86
2022-08-22T04:24:34.001Z,22.97
2022-08-22T04:27:12.091Z,23.14
2022-08-22T04:29:46.736Z,23.19
2022-08-22T04:32:21.342Z,23.31
2022-08-22T04:34:54.629Z,23.60
2022-08-22T04:37:34.666Z,23.50
2022-08-22T04:40:08.578Z,23.33
2022-08-22T04:42:41.119Z,23.31
2022-08-22T04:45:17.763Z,23.67
2022-08-22T04:47:54.434Z,23.34
2022-08-22T04:50:27.625Z,23.03
2022-08-22T04:53:10.698Z,23.28
2022-08-22T04:55:50.792Z,23.16
2022-08-22T04:58:33.304Z,22.98
2022-08-22T05:01:13.531Z,23.16
2022-08-22T05:03:48.341Z,23.13
2022-08-22T05:06:20.505Z,23.78
2022-08-22T05:08:53.964Z,23.42
2022-08-22T05:11:25.295Z,23.11
2022-08-22T05:13:58.524Z,23.37
2022-08-22T05:16:31.578Z,23.21
2022-08-22T05:19:04.250Z,23.36
2022-08-22T05:21:36.659Z,23.38
2022-08-22T05:24:10.951Z,23.45
2022-08-22T05:26:44.349Z,23.33
2022-08-22T05:29:18.477Z,23.53
2022-08-22T05:31:53.160Z,23.03
2022-08-22T05:34:24.893Z,23.53
2022-08-22T05:36:59.729Z,23.52
2022-08-22T05:39:31.117Z,23.25
2022-08-22T05:42:03.598Z,22.97
2022-08-22T05:44:35.001Z,22.90
2022-08-22T05:47:06.248Z,23.12
2022-08-22T05:49:41.450Z,22.86
2022-08-22T05:52:20.580Z,22.67
2022-08-22T05:54:58.438Z,22.95
2022-08-22T05:57:32.349Z,22.75
2022-08-22T06:00:07.886Z,22.71
2022-08-22T06:02:54.581Z,22.77
2022-08-22T06:05:28.644Z,22.83
2022-08-22T06:08:02.151Z,22.73
2022-08-22T06:10:41.000Z,22.78
2022-08-22T06:13:15.206Z,22.93
2022-08-22T06:15:51.881Z,22.92
2022-08-22T06:18:24.197Z,22.86
2022-08-22T06:20:56.483Z,22.83
2022-08-22T06:23:28.893Z,22.83
2022-08-22T06:26:01.708Z,22.39
2022-08-22T06:28:35.957Z,22.82
2022-08-22T06:31:06.243Z,22.66
2022-08-22T06:33:40.846Z,23.24
2022-08-22T06:36:31.734Z,23.52
2022-08-22T06:39:16.608Z,24.00
2022-08-22T06:41:53.831Z,24.09
2022-08-22T06:44:28.202Z,24.08
2022-08-22T06:47:02.652Z,24.20
2022-08-22T06:49:35.656Z,23.63
2022-08-22T06:52:08.301Z,23.37
2022-08-22T06:54:41.057Z,23.69
2022-08-22T06:57:26.731Z,23.60
2022-08-22T06:59:58.300Z,23.41
2022-08-22T07:02:32.018Z,23.89
2022-08-22T07:05:01.000Z,23.79
2022-08-22T07:07:30.121Z,23.83
2022-08-22T07:09:58.684Z,23.49
2022-08-22T07:12:33.054Z,23.69
2022-08-22T07:15:13.446Z,24.19
2022-08-22T07:17:50.754Z,24.36
2022-08-22T07:20:28.059Z,24.36
2022-08-22T07:23:00.607Z,24.05
2022-08-22T07:25:31.667Z,24.64
2022-08-22T07:28:17.219Z,24.91
2022-08-22T07:30:55.853Z,24.92
2022-08-22T07:33:40.370Z,25.16
2022-08-22T07:36:23.216Z,24.75
2022-08-22T07:39:11.062Z,24.12
2022-08-22T07:41:52.062Z,24.37
2022-08-22T07:44:26.987Z,23.82
2022-08-22T07:47:00.683Z,23.89
2022-08-22T07:49:33.657Z,23.79
2022-08-22T07:52:07.489Z,23.58
2022-08-22T07:54:43.030Z,23.78
2022-08-22T07:57:16.753Z,23.64
2022-08-22T07:59:49.439Z,23.67
2022-08-22T08:02:20.287Z,23.79
2022-08-22T08:04:52.676Z,23.74
2022-08-22T08:07:25.549Z,23.61
2022-08-22T08:09:59.606Z,23.99
2022-08-22T08:12:35.797Z,24.56
2022-08-22T08:15:11.030Z,24.51
2022-08-22T08:17:41.466Z,24.16
2022-08-22T08:20:13.732Z,24.49
2022-08-22T08:22:47.834Z,24.64
2022-08-22T08:25:20.612Z,24.60
2022-08-22T08:28:09.980Z,24.64
2022-08-22T08:30:45.099Z,24.53
2022-08-22T08:33:25.594Z,24.76
2022-08-22T08:36:02.962Z,25.09
2022-08-22T08:38:39.107Z,25.46
2022-08-22T08:41:49.146Z,25.21
2022-08-22T08:44:32.839Z,25.10
2022-08-22T08:47:22.371Z,24.98
2022-08-22T08:50:11.537Z,25.10
2022-08-22T08:53:04.303Z,25.48
2022-08-22T08:55:51.196Z,25.87
2022-08-22T08:58:38.022Z,25.44
2022-08-22T09:01:37.550Z,25.41
2022-08-22T09:04:31.676Z,25.40
2022-08-22T09:07:26.098Z,25.05
2022-08-22T09:10:14.401Z,24.84
2022-08-22T09:13:11.686Z,25.15
2022-08-22T09:19:24.420Z,25.37
2022-08-22T09:22:23.182Z,25.79
2022-08-22T09:25:24.626Z,26.20
2022-08-22T09:28:01.115Z,26.13
2022-08-22T09:30:54.185Z,25.98
2022-08-22T09:33:28.272Z,26.34
2022-08-22T09:36:05.050Z,25.93
2022-08-22T09:40:16.042Z,26.03
2022-08-22T09:41:54.204Z,25.63
2022-08-22T09:44:39.767Z,25.34
2022-08-22T09:47:24.627Z,25.05
2022-08-22T09:50:04.996Z,25.12
2022-08-22T09:52:54.163Z,25.02
2022-08-22T09:55:41.282Z,24.83
2022-08-22T09:58:23.598Z,24.78
2022-08-22T10:00:58.524Z,24.19
2022-08-22T10:03:53.651Z,23.88
2022-08-22T10:06:29.726Z,23.86
2022-08-22T10:09:08.988Z,24.31
2022-08-22T10:11:43.376Z,24.33
2022-08-22T10:14:22.179Z,24.44
2022-08-22T10:17:07.217Z,25.18
2022-08-22T10:19:43.616Z,25.33
2022-08-22T10:22:37.737Z,25.18
2022-08-22T10:25:22.488Z,25.86
2022-08-22T10:28:22.964Z,26.13
2022-08-22T10:31:08.472Z,25.91
2022-08-22T10:33:44.424Z,26.50
2022-08-22T10:36:17.745Z,26.73
2022-08-22T10:38:52.072Z,26.03
2022-08-22T10:41:30.758Z,26.00
2022-08-22T10:44:06.321Z,26.65
2022-08-22T10:46:42.252Z,26.42
2022-08-22T10:49:20.493Z,26.56
2022-08-22T10:52:09.722Z,26.45
2022-08-22T10:54:49.507Z,26.05
2022-08-22T10:57:57.339Z,25.80
2022-08-22T11:00:46.111Z,26.75
2022-08-22T11:03:25.068Z,26.77
2022-08-22T11:05:55.612Z,26.18
2022-08-22T11:08:56.132Z,26.03
2022-08-22T11:11:41.177Z,25.94
2022-08-22T11:14:54.521Z,26.35
2022-08-22T11:17:55.355Z,27.25
2022-08-22T11:20:31.971Z,27.22
2022-08-22T11:23:18.296Z,26.72
2022-08-22T11:25:57.531Z,26.43
2022-08-22T11:28:41.439Z,25.95
2022-08-22T11:31:22.559Z,25.58
2022-08-22T11:33:57.242Z,25.55
2022-08-22T11:36:36.101Z,25.45
2022-08-22T11:39:18.373Z,25.43
2022-08-22T11:41:58.780Z,25.35
2022-08-22T11:44:34.349Z,25.77
2022-08-22T11:47:10.044Z,25.64
2022-08-22T11:49:53.975Z,25.57
2022-08-22T11:52:30.432Z,26.12
2022-08-22T11:55:18.707Z,26.44
2022-08-22T11:57:50.010Z,26.17
2022-08-22T12:00:32.111Z,25.91
2022-08-22T12:03:36.090Z,25.90
2022-08-22T12:06:21.921Z,26.19
2022-08-22T12:09:18.534Z,26.32
2022-08-22T12:12:00.203Z,26.06
2022-08-22T12:14:35.362Z,26.93
2022-08-22T12:17:44.886Z,27.09
2022-08-22T12:20:22.177Z,26.83
2022-08-22T12:23:15.829Z,26.71
2022-08-22T12:26:03.620Z,27.14
2022-08-22T12:28:42.461Z,28.13
2022-08-22T12:31:17.579Z,28.75
2022-08-22T12:33:57.786Z,29.08
2022-08-22T12:36:59.549Z,27.36
2022-08-22T12:39:55.249Z,27.55
2022-08-22T12:42:48.965Z,28.74
2022-08-22T12:45:45.543Z,29.45
2022-08-22T12:48:34.863Z,29.30
2022-08-22T12:51:24.962Z,28.61
2022-08-22T12:54:18.882Z,27.31
2022-08-22T12:56:58.341Z,27.31
2022-08-22T12:59:32.775Z,28.25
2022-08-22T13:02:04.892Z,29.03
2022-08-22T13:04:37.028Z,29.69
2022-08-22T13:07:19.936Z,30.00
2022-08-22T13:09:55.690Z,29.63
2022-08-22T13:12:28.636Z,30.20
2022-08-22T13:15:05.823Z,30.38
2022-08-22T13:17:39.969Z,30.76
2022-08-22T13:20:19.874Z,31.01
2022-08-22T13:22:48.951Z,31.29
2022-08-22T13:25:27.040Z,31.57
2022-08-22T13:27:59.140Z,30.69
2022-08-22T13:30:34.071Z,31.25
2022-08-22T13:33:10.151Z,30.94
2022-08-22T13:35:52.393Z,30.00
2022-08-22T13:38:26.651Z,29.55
2022-08-22T13:40:58.131Z,29.04
2022-08-22T13:43:31.836Z,28.87
2022-08-22T13:46:05.843Z,28.12
2022-08-22T13:48:50.303Z,28.52
2022-08-22T13:51:26.453Z,29.17
2022-08-22T13:54:03.353Z,29.33
2022-08-22T13:56:57.549Z,29.98
2022-08-22T13:59:51.013Z,29.82
2022-08-22T14:02:43.412Z,29.08
2022-08-22T14:05:18.469Z,29.18
2022-08-22T14:07:57.134Z,28.53
2022-08-22T14:10:30.476Z,28.87
2022-08-22T14:13:32.204Z,28.78
2022-08-22T14:16:03.364Z,29.40
2022-08-22T14:18:45.693Z,29.91
2022-08-22T14:21:40.058Z,30.17
2022-08-22T14:24:17.148Z,29.28
2022-08-22T14:26:58.160Z,29.35
2022-08-22T14:29:32.052Z,28.78
2022-08-22T14:32:14.208Z,28.08
2022-08-22T14:34:49.352Z,28.41
2022-08-22T14:37:24.539Z,29.08
2022-08-22T14:39:59.141Z,29.48
2022-08-22T14:42:44.262Z,28.56
2022-08-22T14:45:18.862Z,28.48
2022-08-22T14:48:29.537Z,28.07
2022-08-22T14:50:53.396Z,28.10
2022-08-22T14:53:28.412Z,28.96
2022-08-22T14:56:02.492Z,28.02
2022-08-22T14:58:35.352Z,27.87
2022-08-22T15:01:12.499Z,27.78
2022-08-22T15:03:45.178Z,27.92
2022-08-22T15:06:31.821Z,27.83
2022-08-22T15:09:01.145Z,27.83
2022-08-22T15:11:42.171Z,27.99
2022-08-22T15:14:16.086Z,28.01
2022-08-22T15:16:53.768Z,28.13
2022-08-22T15:19:27.413Z,28.12
2022-08-22T15:22:13.610Z,28.66
2022-08-22T15:24:46.120Z,28.88
2022-08-22T15:27:19.144Z,29.22
2022-08-22T15:29:55.629Z,29.02
2022-08-22T15:32:27.504Z,29.63
2022-08-22T15:35:07.436Z,30.02
2022-08-22T15:37:55.560Z,30.27
2022-08-22T15:40:40.536Z,29.12
2022-08-22T15:43:21.178Z,28.72
2022-08-22T15:45:52.254Z,29.09
2022-08-22T15:48:36.263Z,29.10
2022-08-22T15:51:10.307Z,28.35
2022-08-22T15:56:35.445Z,29.00
2022-08-22T15:59:47.972Z,29.55
2022-08-22T16:02:30.302Z,29.40
2022-08-22T16:05:24.158Z,29.39
2022-08-22T16:08:03.793Z,29.69
2022-08-22T16:10:36.401Z,29.34
2022-08-22T16:13:33.723Z,28.53
2022-08-22T16:16:07.087Z,27.87
2022-08-22T16:19:13.612Z,27.66
2022-08-22T16:22:09.841Z,27.52
2022-08-22T16:25:10.538Z,27.29
2022-08-22T16:27:55.031Z,27.11
2022-08-22T16:30:40.513Z,27.34
2022-08-22T16:33:18.015Z,27.20
2022-08-22T16:36:24.743Z,27.10
2022-08-22T16:38:58.440Z,27.04
2022-08-22T16:41:33.688Z,27.08
2022-08-22T16:44:34.991Z,27.01
2022-08-22T16:47:18.145Z,26.87
2022-08-22T16:50:03.837Z,26.74
2022-08-22T16:53:03.870Z,26.77
2022-08-22T16:55:51.028Z,26.82
2022-08-22T16:58:57.943Z,27.07
2022-08-22T17:01:46.891Z,27.04
2022-08-22T17:04:25.374Z,27.27
2022-08-22T17:07:14.577Z,27.70
2022-08-22T17:10:18.327Z,27.95
2022-08-22T17:13:15.105Z,28.03
2022-08-22T17:16:03.338Z,27.89
2022-08-22T17:18:54.431Z,27.96
2022-08-22T17:21:27.757Z,27.87
2022-08-22T17:24:07.040Z,27.76
2022-08-22T17:26:55.122Z,27.88
2022-08-22T17:29:42.146Z,28.41
2022-08-22T17:32:17.954Z,28.67
2022-08-22T17:34:57.582Z,28.15
2022-08-22T17:37:40.311Z,28.02
2022-08-22T17:40:27.603Z,27.81
2022-08-22T17:43:10.742Z,27.95
2022-08-22T17:45:56.636Z,27.93
2022-08-22T17:48:30.544Z,27.87
2022-08-22T17:51:14.027Z,27.75
2022-08-22T17:53:51.193Z,27.59
2022-08-22T17:56:25.993Z,27.40
2022-08-22T17:59:02.067Z,27.28
2022-08-22T18:01:50.926Z,27.46
2022-08-22T18:04:27.605Z,27.48
2022-08-22T18:07:06.819Z,27.51
2022-08-22T18:09:41.291Z,27.30
2022-08-22T18:18:04.228Z,28.22
2022-08-22T18:21:51.311Z,27.96
2022-08-22T18:24:31.312Z,28.24
2022-08-22T18:27:09.789Z,28.38
2022-08-22T18:30:03.952Z,28.17
2022-08-22T18:32:41.159Z,28.27
2022-08-22T18:35:20.875Z,28.05
2022-08-22T18:37:58.600Z,28.12
2022-08-22T18:40:33.596Z,28.34
2022-08-22T18:43:14.950Z,28.37
2022-08-22T18:46:03.937Z,28.56
2022-08-22T18:48:59.308Z,28.63
2022-08-22T18:51:38.238Z,28.33
2022-08-22T18:54:36.144Z,28.56
2022-08-22T18:57:23.875Z,28.30
2022-08-22T19:00:07.239Z,28.47
2022-08-22T19:03:03.458Z,28.41
2022-08-22T19:05:48.210Z,27.96
2022-08-22T19:08:40.546Z,27.99
2022-08-22T19:11:36.493Z,28.03
2022-08-22T19:14:42.115Z,27.67
2022-08-22T19:17:59.367Z,27.70
2022-08-22T19:20:49.103Z,27.53
2022-08-22T19:23:47.518Z,27.68
2022-08-22T19:26:42.023Z,27.47
2022-08-22T19:29:44.016Z,27.47
2022-08-22T19:32:33.686Z,26.94
2022-08-22T19:35:23.442Z,27.01
2022-08-22T19:37:54.789Z,26.70
2022-08-22T19:40:49.661Z,26.74
2022-08-22T19:43:28.123Z,26.07
2022-08-22T19:45:58.986Z,25.75
2022-08-22T19:48:31.985Z,25.62
2022-08-22T19:51:15.888Z,25.62
2022-08-22T19:53:54.151Z,25.49
2022-08-22T19:56:35.664Z,25.75
2022-08-22T19:59:20.150Z,25.75
2022-08-22T20:02:03.200Z,25.94
2022-08-22T20:05:03.642Z,25.73
2022-08-22T20:07:53.032Z,25.36
2022-08-22T20:10:31.428Z,25.25
2022-08-22T20:13:08.825Z,25.15
2022-08-22T20:16:17.171Z,25.28
2022-08-22T20:19:17.022Z,25.64
2022-08-22T20:21:53.712Z,25.93
2022-08-22T20:24:34.471Z,26.59
2022-08-22T20:27:14.817Z,26.81
2022-08-22T20:29:49.974Z,26.95
2022-08-22T20:32:23.177Z,27.26
2022-08-22T20:34:57.013Z,27.49
2022-08-22T20:38:02.771Z,27.73
2022-08-22T20:40:55.543Z,28.00
2022-08-22T20:43:28.278Z,27.95
2022-08-22T20:46:08.209Z,28.07
2022-08-22T20:48:44.691Z,28.00
2022-08-22T20:51:17.918Z,27.69
2022-08-22T20:53:54.261Z,27.47
2022-08-22T20:56:36.236Z,27.44
2022-08-22T20:59:19.699Z,27.58
2022-08-22T21:01:49.898Z,27.41
2022-08-22T21:04:22.284Z,27.29
2022-08-22T21:07:00.851Z,27.05
2022-08-22T21:09:47.733Z,27.27
2022-08-22T21:12:17.831Z,26.70
2022-08-22T21:14:47.139Z,26.00
2022-08-22T21:17:25.787Z,25.84
2022-08-22T21:19:57.805Z,26.00
2022-08-22T21:22:29.287Z,26.14
2022-08-22T21:25:00.897Z,26.62
2022-08-22T21:27:34.642Z,26.98
2022-08-22T21:30:07.775Z,27.22
2022-08-22T21:32:39.491Z,27.40
2022-08-22T21:35:25.090Z,27.77
2022-08-22T21:37:54.454Z,27.25
2022-08-22T21:40:30.101Z,27.07
2022-08-22T21:43:09.600Z,27.29
2022-08-22T21:45:44.091Z,26.92
2022-08-22T21:48:38.753Z,27.50
2022-08-22T21:51:42.853Z,27.89
2022-08-22T21:54:33.575Z,27.91
2022-08-22T21:57:17.864Z,28.05
2022-08-22T21:59:51.880Z,27.89
2022-08-22T22:02:36.867Z,27.92
2022-08-22T22:05:09.511Z,27.91
2022-08-22T22:07:41.600Z,27.90
2022-08-22T22:10:13.985Z,27.80
2022-08-22T22:12:44.215Z,27.78
2022-08-22T22:15:17.713Z,27.90
2022-08-22T22:17:46.505Z,27.95
2022-08-22T22:20:16.331Z,28.05
2022-08-22T22:22:46.657Z,28.06
2022-08-22T22:25:41.034Z,28.09
2022-08-22T22:28:07.528Z,28.16
2022-08-22T22:30:37.604Z,28.24
2022-08-22T22:33:06.361Z,28.25
2022-08-22T22:35:35.382Z,28.18
2022-08-22T22:38:04.172Z,28.25
2022-08-22T22:40:32.729Z,28.14
2022-08-22T22:43:01.292Z,28.22
2022-08-22T22:45:30.024Z,28.29
2022-08-22T22:48:00.000Z,28.29
2022-08-22T22:50:28.602Z,28.30
2022-08-22T22:52:57.400Z,28.31
2022-08-22T22:55:25.902Z,28.35
2022-08-22T22:57:58.523Z,28.38
2022-08-22T23:00:30.742Z,28.32
2022-08-22T23:03:02.793Z,28.34
2022-08-22T23:05:32.782Z,28.34
2022-08-22T23:08:01.945Z,28.15
2022-08-22T23:10:31.804Z,28.15
2022-08-22T23:13:00.839Z,28.04
2022-08-22T23:15:29.408Z,28.12
2022-08-22T23:17:57.896Z,28.10
2022-08-22T23:20:28.015Z,28.23
2022-08-22T23:22:56.525Z,28.29
2022-08-22T23:25:24.912Z,28.27
2022-08-22T23:27:53.955Z,28.24
2022-08-22T23:30:22.497Z,28.22
2022-08-22T23:32:50.872Z,28.24
2022-08-22T23:35:19.678Z,28.22
2022-08-22T23:37:49.346Z,28.20
2022-08-22T23:40:17.877Z,28.15
2022-08-22T23:42:46.512Z,28.00
2022-08-22T23:45:14.951Z,28.13
2022-08-22T23:47:43.373Z,27.92
2022-08-22T23:50:12.112Z,28.07
2022-08-22T23:52:40.427Z,27.70
2022-08-22T23:55:11.176Z,27.37
2022-08-22T23:57:39.746Z,27.03
